createdAt,value
2024-03-24T00:00:13.134Z,3.6765
2024-03-24T00:01:16.161Z,2.9308
2024-03-24T00:02:19.195Z,4.4235
2024-03-24T00:03:22.215Z,2.4112
2024-03-24T00:04:25.288Z,5.8618
2024-03-24T00:05:28.323Z,2.8697
2024-03-24T00:06:31.367Z,3.3848
2024-03-24T00:07:34.396Z,0.1150
2024-03-24T00:08:37.442Z,4.2508
2024-03-24T00:09:40.495Z,3.2733
2024-03-24T00:10:43.533Z,4.0179
2024-03-24T00:11:46.574Z,3.3327
2024-03-24T00:12:49.599Z,3.9013
2024-03-24T00:13:52.652Z,3.2179
2024-03-24T00:14:55.686Z,3.5605
2024-03-24T00:15:59.066Z,0.2862
2024-03-24T00:17:02.121Z,6.0701
2024-03-24T00:18:05.126Z,1.1492
2024-03-24T00:19:08.219Z,1.6070
2024-03-24T00:20:11.252Z,2.7556
2024-03-24T00:21:14.261Z,4.1940
2024-03-24T00:22:17.550Z,4.0190
2024-03-24T00:23:20.590Z,2.9773
2024-03-24T00:24:23.728Z,6.0285
2024-03-24T00:25:26.734Z,5.7943
2024-03-24T00:26:29.769Z,5.5143
2024-03-24T00:27:32.745Z,5.0546
2024-03-24T00:28:35.921Z,3.6693
2024-03-24T00:29:38.939Z,2.0107
2024-03-24T00:30:41.900Z,2.2410
2024-03-24T00:31:44.983Z,2.6998
2024-03-24T00:32:48.018Z,5.5706
2024-03-24T00:33:51.040Z,5.4571
2024-03-24T00:34:54.410Z,7.2118
2024-03-24T00:35:57.608Z,6.8566
2024-03-24T00:37:00.797Z,3.9659
2024-03-24T00:38:03.825Z,3.7242
2024-03-24T00:39:06.883Z,2.4116
2024-03-24T00:40:09.918Z,3.0414
2024-03-24T00:41:12.909Z,4.8289
2024-03-24T00:42:16.004Z,4.6515
2024-03-24T00:43:19.058Z,1.4926
2024-03-24T00:44:22.099Z,2.7568
2024-03-24T00:45:25.146Z,2.3542
2024-03-24T00:46:28.180Z,4.6479
2024-03-24T00:47:31.244Z,3.5633
2024-03-24T00:48:34.247Z,4.3047
2024-03-24T00:49:37.244Z,7.1254
2024-03-24T00:50:40.347Z,4.0812
2024-03-24T00:51:43.362Z,4.4172
2024-03-24T00:52:46.669Z,4.1248
2024-03-24T00:53:49.766Z,4.9312
2024-03-24T00:54:52.787Z,4.4183
2024-03-24T00:55:55.844Z,6.3760
2024-03-24T00:56:58.901Z,6.7747
2024-03-24T00:58:02.275Z,5.3785
2024-03-24T00:59:05.286Z,5.4471
2024-03-24T01:00:08.324Z,4.0782
2024-03-24T01:01:11.391Z,4.6480
2024-03-24T01:02:14.355Z,7.3564
2024-03-24T01:03:17.451Z,7.5301
2024-03-24T01:04:20.507Z,5.9610
2024-03-24T01:05:23.556Z,2.7009
2024-03-24T01:06:26.601Z,6.6623
2024-03-24T01:07:29.676Z,4.6490
2024-03-24T01:08:32.724Z,3.7852
2024-03-24T01:09:35.712Z,6.3807
2024-03-24T01:10:38.752Z,3.9078
2024-03-24T01:11:41.900Z,8.3658
2024-03-24T01:12:44.883Z,3.8499
2024-03-24T01:13:47.900Z,6.0923
2024-03-24T01:14:50.904Z,7.7554
2024-03-24T01:15:53.930Z,4.2522
2024-03-24T01:16:56.893Z,2.9883
2024-03-24T01:18:00.015Z,6.0341
2024-03-24T01:19:03.094Z,4.4701
2024-03-24T01:20:06.073Z,4.0788
2024-03-24T01:21:09.150Z,4.9427
2024-03-24T01:22:12.202Z,5.0483
2024-03-24T01:23:15.198Z,2.5289
2024-03-24T01:24:18.250Z,3.4467
2024-03-24T01:25:21.292Z,5.5646
2024-03-24T01:26:24.392Z,7.2320
2024-03-24T01:27:27.422Z,2.9871
2024-03-24T01:28:30.542Z,5.0479
2024-03-24T01:29:33.532Z,4.5944
2024-03-24T01:30:36.581Z,5.6900
2024-03-24T01:31:39.652Z,5.2203
2024-03-24T01:32:42.652Z,7.5851
2024-03-24T01:33:45.673Z,10.1709
2024-03-24T01:34:48.967Z,8.5946
2024-03-24T01:35:52.045Z,5.2750
2024-03-24T01:36:55.061Z,2.5827
2024-03-24T01:37:58.062Z,2.8148
2024-03-24T01:39:01.132Z,4.7119
2024-03-24T01:40:04.167Z,5.5069
2024-03-24T01:41:07.189Z,5.1735
2024-03-24T01:42:10.196Z,9.5325
2024-03-24T01:43:13.298Z,4.3025
2024-03-24T01:44:16.342Z,7.1272
2024-03-24T01:45:19.353Z,12.9777
2024-03-24T01:46:22.462Z,7.5741
2024-03-24T01:47:25.486Z,6.7776
2024-03-24T01:48:28.493Z,9.1920
2024-03-24T01:49:31.675Z,9.2836
2024-03-24T01:50:34.703Z,2.6995
2024-03-24T01:51:37.684Z,3.2169
2024-03-24T01:52:40.715Z,3.7363
2024-03-24T01:53:43.684Z,8.2139
2024-03-24T01:54:46.746Z,7.4728
2024-03-24T01:55:49.763Z,3.0436
2024-03-24T01:56:52.821Z,3.2163
2024-03-24T01:57:55.867Z,3.9586
2024-03-24T01:58:58.915Z,6.9528
2024-03-24T02:00:01.915Z,5.8006
2024-03-24T02:01:04.936Z,5.4011
2024-03-24T02:02:07.946Z,10.5641
2024-03-24T02:03:11.023Z,9.8740
2024-03-24T02:04:14.132Z,10.1067
2024-03-24T02:05:17.088Z,8.7323
2024-03-24T02:06:20.131Z,7.5295
2024-03-24T02:07:23.166Z,6.1987
2024-03-24T02:08:26.190Z,9.0711
2024-03-24T02:09:29.234Z,5.0018
2024-03-24T02:10:32.275Z,7.0053
2024-03-24T02:11:35.318Z,7.0584
2024-03-24T02:12:38.312Z,6.4934
2024-03-24T02:13:41.426Z,6.0886
2024-03-24T02:14:44.441Z,6.4863
2024-03-24T02:15:47.467Z,10.3948
2024-03-24T02:16:50.535Z,9.1347
2024-03-24T02:17:57.815Z,6.8316
2024-03-24T02:18:55.646Z,9.2061
2024-03-24T02:19:58.644Z,8.7946
2024-03-24T02:21:01.726Z,5.5181
2024-03-24T02:22:04.755Z,8.8350
2024-03-24T02:23:07.914Z,5.6289
2024-03-24T02:24:10.907Z,7.1078
2024-03-24T02:25:13.920Z,7.3002
2024-03-24T02:26:17.267Z,5.5599
2024-03-24T02:27:20.344Z,5.3215
2024-03-24T02:28:23.384Z,4.5957
2024-03-24T02:29:26.674Z,6.8182
2024-03-24T02:30:26.588Z,6.9954
2024-03-24T02:31:29.577Z,6.6657
2024-03-24T02:32:32.669Z,3.5019
2024-03-24T02:33:35.703Z,3.9041
2024-03-24T02:34:38.723Z,4.5359
2024-03-24T02:35:41.726Z,4.5409
2024-03-24T02:36:44.753Z,5.3986
2024-03-24T02:37:47.799Z,5.6895
2024-03-24T02:38:50.844Z,3.0435
2024-03-24T02:39:53.952Z,0.3440
2024-03-24T02:40:56.985Z,2.0107
2024-03-24T02:42:00.072Z,1.8362
2024-03-24T02:43:03.109Z,3.1592
2024-03-24T02:44:06.149Z,1.7212
2024-03-24T02:45:09.244Z,2.4682
2024-03-24T02:46:12.273Z,3.7359
2024-03-24T02:47:15.488Z,1.6645
2024-03-24T02:48:18.532Z,1.6605
2024-03-24T02:49:21.554Z,2.1262
2024-03-24T02:50:24.586Z,2.6976
2024-03-24T02:51:27.906Z,0.5171
2024-03-24T02:52:30.993Z,0.0000
2024-03-24T02:53:34.068Z,0.2292
2024-03-24T02:54:37.136Z,1.8953
2024-03-24T02:55:40.136Z,2.4702
2024-03-24T02:56:43.154Z,2.9306
2024-03-24T02:57:46.353Z,2.9217
2024-03-24T02:58:49.351Z,3.2170
2024-03-24T02:59:52.617Z,3.4430
2024-03-24T03:00:55.624Z,2.5772
2024-03-24T03:01:58.677Z,0.5172
2024-03-24T03:03:01.712Z,1.5496
2024-03-24T03:04:04.708Z,4.0804
2024-03-24T03:05:07.811Z,1.4938
2024-03-24T03:06:11.170Z,2.0600
2024-03-24T03:07:14.174Z,3.9542
2024-03-24T03:08:17.195Z,5.0559
2024-03-24T03:09:20.285Z,2.2389
2024-03-24T03:10:23.324Z,1.2632
2024-03-24T03:11:26.341Z,3.6178
2024-03-24T03:12:29.421Z,1.6069
2024-03-24T03:13:32.409Z,2.1262
2024-03-24T03:14:35.478Z,4.7641
2024-03-24T03:15:38.687Z,5.5593
2024-03-24T03:16:41.692Z,6.7186
2024-03-24T03:17:44.673Z,8.9088
2024-03-24T03:18:47.963Z,3.6129
2024-03-24T03:19:50.990Z,7.5666
2024-03-24T03:20:54.043Z,3.7882
2024-03-24T03:21:57.042Z,5.5164
2024-03-24T03:23:00.144Z,3.5630
2024-03-24T03:24:03.159Z,2.1231
2024-03-24T03:25:06.205Z,4.7102
2024-03-24T03:26:09.240Z,8.2683
2024-03-24T03:27:12.229Z,1.3208
2024-03-24T03:28:15.333Z,2.5290
2024-03-24T03:29:18.364Z,3.2707
2024-03-24T03:30:21.443Z,3.9008
2024-03-24T03:31:24.443Z,3.7345
2024-03-24T03:32:27.498Z,5.4023
2024-03-24T03:33:30.555Z,2.4668
2024-03-24T03:34:33.565Z,3.8484
2024-03-24T03:35:36.604Z,4.6559
2024-03-24T03:36:39.640Z,4.4182
2024-03-24T03:37:42.735Z,4.0179
2024-03-24T03:38:45.818Z,4.2470
2024-03-24T03:39:48.882Z,4.5354
2024-03-24T03:40:51.901Z,2.8147
2024-03-24T03:41:55.166Z,3.1462
2024-03-24T03:42:58.189Z,5.9198
2024-03-24T03:44:01.255Z,4.6481
2024-03-24T03:45:04.281Z,1.7240
2024-03-24T03:46:07.320Z,1.0332
2024-03-24T03:47:10.306Z,0.0000
2024-03-24T03:48:13.398Z,0.0000
2024-03-24T03:49:16.523Z,0.0000
2024-03-24T03:50:19.574Z,0.0000
2024-03-24T03:51:22.618Z,0.0000
2024-03-24T03:52:25.668Z,0.9189
2024-03-24T03:53:28.686Z,2.1827
2024-03-24T03:54:31.731Z,2.0098
2024-03-24T03:55:34.750Z,0.0000
2024-03-24T03:56:37.861Z,0.0000
2024-03-24T03:57:40.867Z,1.8384
2024-03-24T03:58:43.891Z,2.9874
2024-03-24T03:59:46.987Z,0.8608
2024-03-24T04:00:49.949Z,3.1600
2024-03-24T04:01:52.931Z,2.7593
2024-03-24T04:02:55.972Z,3.9081
2024-03-24T04:03:58.942Z,3.2741
2024-03-24T04:05:02.044Z,4.5411
2024-03-24T04:06:05.067Z,2.3524
2024-03-24T04:07:08.119Z,0.6892
2024-03-24T04:08:11.186Z,1.9522
2024-03-24T04:09:14.213Z,2.9837
2024-03-24T04:10:17.395Z,1.3201
2024-03-24T04:11:20.420Z,1.0325
2024-03-24T04:12:23.472Z,0.0574
2024-03-24T04:13:26.775Z,1.8299
2024-03-24T04:14:29.795Z,3.9082
2024-03-24T04:15:32.781Z,3.5617
2024-03-24T04:16:35.970Z,3.0942
2024-03-24T04:17:38.953Z,2.0115
2024-03-24T04:18:42.023Z,1.6080
2024-03-24T04:19:45.028Z,1.9532
2024-03-24T04:20:48.294Z,3.8401
2024-03-24T04:21:51.343Z,2.9807
2024-03-24T04:22:54.373Z,4.1374
2024-03-24T04:23:57.423Z,2.9844
2024-03-24T04:25:00.528Z,2.6983
2024-03-24T04:26:03.525Z,3.6758
2024-03-24T04:27:06.544Z,3.1016
2024-03-24T04:28:09.557Z,2.8156
2024-03-24T04:29:12.562Z,0.4022
2024-03-24T04:30:15.682Z,2.4682
2024-03-24T04:31:18.689Z,4.8230
2024-03-24T04:32:21.745Z,3.4427
2024-03-24T04:33:24.755Z,3.2189
2024-03-24T04:34:27.766Z,2.7577
2024-03-24T04:35:30.857Z,2.3554
2024-03-24T04:36:34.043Z,0.9159
2024-03-24T04:37:37.046Z,1.6664
2024-03-24T04:38:40.059Z,2.0678
2024-03-24T04:39:43.326Z,0.8026
2024-03-24T04:40:46.396Z,0.0000
2024-03-24T04:41:49.475Z,0.4587
2024-03-24T04:42:52.643Z,2.2915
2024-03-24T04:43:55.782Z,3.5007
2024-03-24T04:44:58.843Z,2.6406
2024-03-24T04:46:01.894Z,0.3446
2024-03-24T04:47:04.919Z,0.0000
2024-03-24T04:48:07.955Z,0.0000
2024-03-24T04:49:11.016Z,0.0000
2024-03-24T04:50:14.042Z,0.4596
2024-03-24T04:51:17.143Z,2.3508
2024-03-24T04:52:20.184Z,1.8953
2024-03-24T04:53:23.252Z,0.2296
2024-03-24T04:54:26.515Z,0.5160
2024-03-24T04:55:29.586Z,0.7453
2024-03-24T04:56:32.612Z,1.7793
2024-03-24T04:57:35.632Z,0.0000
2024-03-24T04:58:38.691Z,0.0000
2024-03-24T04:59:41.784Z,0.1147
2024-03-24T05:00:44.868Z,0.8609
2024-03-24T05:01:47.884Z,1.0914
2024-03-24T05:02:50.943Z,0.7465
2024-03-24T05:03:53.961Z,3.3888
2024-03-24T05:04:56.956Z,0.8045
2024-03-24T05:06:00.049Z,2.3543
2024-03-24T05:07:03.088Z,2.0087
2024-03-24T05:08:06.114Z,1.0341
2024-03-24T05:09:09.123Z,1.0340
2024-03-24T05:10:12.219Z,0.8616
2024-03-24T05:11:15.203Z,1.5497
2024-03-24T05:12:18.351Z,1.7769
2024-03-24T05:13:21.343Z,3.9661
2024-03-24T05:14:24.387Z,1.3214
2024-03-24T05:15:27.455Z,1.8367
2024-03-24T05:16:30.489Z,0.4021
2024-03-24T05:17:33.631Z,0.6886
2024-03-24T05:18:36.800Z,2.3532
2024-03-24T05:19:39.834Z,0.8596
2024-03-24T05:20:42.869Z,0.6317
2024-03-24T05:21:45.935Z,2.8141
2024-03-24T05:22:49.036Z,2.6387
2024-03-24T05:23:52.104Z,3.1557
2024-03-24T05:24:55.362Z,1.5493
2024-03-24T05:25:58.365Z,0.0000
2024-03-24T05:27:01.465Z,0.9196
2024-03-24T05:28:04.543Z,3.2666
2024-03-24T05:29:07.572Z,6.2611
2024-03-24T05:30:10.643Z,4.0185
2024-03-24T05:31:13.919Z,4.7014
2024-03-24T05:32:16.952Z,5.1017
2024-03-24T05:33:19.992Z,2.3543
2024-03-24T05:34:23.032Z,5.1111
2024-03-24T05:35:26.068Z,4.1911
2024-03-24T05:36:28.561Z,4.8670
2024-03-24T05:37:30.997Z,5.0439
2024-03-24T05:38:33.593Z,7.0111
2024-03-24T05:39:36.049Z,5.6724
2024-03-24T05:40:38.533Z,5.3863
2024-03-24T05:41:41.109Z,9.1577
2024-03-24T05:42:43.624Z,8.2087
2024-03-24T05:43:46.237Z,5.6812
2024-03-24T05:44:48.727Z,7.4547
2024-03-24T05:45:51.191Z,7.3032
2024-03-24T05:46:53.771Z,4.9155
2024-03-24T05:47:56.225Z,5.1009
2024-03-24T05:48:58.701Z,1.9707
2024-03-24T05:50:01.198Z,1.3899
2024-03-24T05:51:03.699Z,2.5517
2024-03-24T05:52:06.161Z,4.9228
2024-03-24T05:53:08.808Z,6.7207
2024-03-24T05:54:11.315Z,6.5318
2024-03-24T05:55:13.756Z,5.3317
2024-03-24T05:56:16.307Z,5.6767
2024-03-24T05:57:18.792Z,10.9986
2024-03-24T05:58:21.255Z,8.5198
2024-03-24T05:59:23.896Z,8.7820
2024-03-24T06:00:26.505Z,9.7400
2024-03-24T06:01:28.922Z,5.6722
2024-03-24T06:02:31.360Z,7.0143
2024-03-24T06:03:34.087Z,11.4439
2024-03-24T06:04:36.482Z,7.7574
2024-03-24T06:05:38.900Z,7.3096
2024-03-24T06:06:41.353Z,6.5524
2024-03-24T06:07:43.811Z,7.8863
2024-03-24T06:08:46.375Z,6.4912
2024-03-24T06:09:48.791Z,11.3379
2024-03-24T06:10:51.514Z,8.5051
2024-03-24T06:11:54.033Z,10.5239
2024-03-24T06:12:56.440Z,7.8866
2024-03-24T06:13:58.960Z,5.3258
2024-03-24T06:15:01.382Z,9.3924
2024-03-24T06:16:03.832Z,9.3400
2024-03-24T06:17:06.257Z,8.6952
2024-03-24T06:18:08.945Z,9.5453
2024-03-24T06:19:14.213Z,7.7565
2024-03-24T06:20:13.735Z,5.7487
2024-03-24T06:21:16.157Z,6.6709
2024-03-24T06:22:18.574Z,4.2331
2024-03-24T06:23:21.022Z,6.0321
2024-03-24T06:24:23.461Z,8.4048
2024-03-24T06:25:25.911Z,5.6241
2024-03-24T06:26:28.474Z,9.3259
2024-03-24T06:27:30.925Z,7.9323
2024-03-24T06:28:33.603Z,7.4003
2024-03-24T06:29:36.047Z,7.1820
2024-03-24T06:30:38.667Z,10.4259
2024-03-24T06:31:43.842Z,7.2138
2024-03-24T06:32:44.808Z,9.0290
2024-03-24T06:33:47.277Z,7.8590
2024-03-24T06:34:49.713Z,5.4519
2024-03-24T06:35:52.311Z,9.5008
2024-03-24T06:36:54.718Z,9.9537
2024-03-24T06:37:57.179Z,7.5409
2024-03-24T06:38:59.604Z,7.6516
2024-03-24T06:40:02.031Z,5.3359
2024-03-24T06:41:04.479Z,4.0018
2024-03-24T06:42:07.027Z,6.8895
2024-03-24T06:43:09.521Z,6.4853
2024-03-24T06:44:11.914Z,9.3339
2024-03-24T06:45:14.382Z,4.1756
2024-03-24T06:46:16.958Z,7.1222
2024-03-24T06:47:19.398Z,6.7779
2024-03-24T06:48:21.865Z,8.4630
2024-03-24T06:49:24.303Z,7.0142
2024-03-24T06:50:26.874Z,11.3651
2024-03-24T06:51:29.312Z,11.1071
2024-03-24T06:52:32.040Z,7.0743
2024-03-24T06:53:34.800Z,7.4636
2024-03-24T06:54:37.370Z,9.7958
2024-03-24T06:55:39.794Z,5.7886
2024-03-24T06:56:42.554Z,5.3751
2024-03-24T06:57:45.284Z,9.0638
2024-03-24T06:58:47.745Z,9.7168
2024-03-24T06:59:50.182Z,6.9574
2024-03-24T07:00:52.618Z,6.7265
2024-03-24T07:01:55.200Z,7.3633
2024-03-24T07:02:57.638Z,7.1731
2024-03-24T07:04:00.299Z,5.3815
2024-03-24T07:05:02.760Z,4.1653
2024-03-24T07:06:05.429Z,3.8145
2024-03-24T07:07:07.842Z,3.9425
2024-03-24T07:08:10.279Z,4.8717
2024-03-24T07:09:12.742Z,8.2298
2024-03-24T07:10:15.183Z,5.2772
2024-03-24T07:11:17.762Z,7.1316
2024-03-24T07:12:20.189Z,4.5130
2024-03-24T07:13:22.830Z,5.2595
2024-03-24T07:14:25.272Z,6.9018
2024-03-24T07:15:27.741Z,7.1260
2024-03-24T07:16:30.199Z,5.4491
2024-03-24T07:17:32.621Z,8.4659
2024-03-24T07:18:35.041Z,6.8999
2024-03-24T07:19:37.601Z,7.7117
2024-03-24T07:20:40.040Z,8.5668
2024-03-24T07:21:42.448Z,8.6970
2024-03-24T07:22:44.940Z,9.2167
2024-03-24T07:23:47.385Z,7.4181
2024-03-24T07:24:49.930Z,8.8742
2024-03-24T07:25:52.632Z,8.0898
2024-03-24T07:26:55.133Z,14.2708
2024-03-24T07:27:58.069Z,10.5455
2024-03-24T07:29:01.124Z,10.5507
2024-03-24T07:30:04.161Z,10.1630
2024-03-24T07:31:07.180Z,10.2790
2024-03-24T07:32:10.231Z,8.0430
2024-03-24T07:33:13.410Z,8.7637
2024-03-24T07:34:16.434Z,9.3663
2024-03-24T07:35:19.486Z,7.0025
2024-03-24T07:36:22.509Z,8.7879
2024-03-24T07:37:25.520Z,6.8936
2024-03-24T07:38:28.543Z,6.6651
2024-03-24T07:39:31.576Z,11.3711
2024-03-24T07:40:34.871Z,14.0283
2024-03-24T07:41:37.914Z,10.4438
2024-03-24T07:42:43.515Z,7.2921
2024-03-24T07:43:44.061Z,10.9550
2024-03-24T07:44:47.111Z,10.6185
2024-03-24T07:45:50.127Z,6.4352
2024-03-24T07:46:53.226Z,8.6083
2024-03-24T07:47:56.258Z,7.6915
2024-03-24T07:48:59.298Z,6.9551
2024-03-24T07:50:02.335Z,8.4377
2024-03-24T07:51:05.342Z,4.6551
2024-03-24T07:52:08.361Z,4.6530
2024-03-24T07:53:11.390Z,3.5035
2024-03-24T07:54:14.526Z,3.4972
2024-03-24T07:55:17.584Z,4.4825
2024-03-24T07:56:20.557Z,7.5238
2024-03-24T07:57:23.831Z,8.8913
2024-03-24T07:58:27.053Z,8.1397
2024-03-24T07:59:30.198Z,6.2358
2024-03-24T08:00:33.253Z,4.9916
2024-03-24T08:01:36.305Z,8.3833
2024-03-24T08:02:39.387Z,7.0548
2024-03-24T08:03:42.381Z,5.3427
2024-03-24T08:04:45.471Z,2.9277
2024-03-24T08:05:48.548Z,7.1742
2024-03-24T08:06:51.630Z,5.7387
2024-03-24T08:07:56.440Z,5.7458
2024-03-24T08:08:56.422Z,11.6603
2024-03-24T08:09:59.651Z,14.9252
2024-03-24T08:11:02.703Z,12.9480
2024-03-24T08:12:05.831Z,8.0252
2024-03-24T08:13:08.841Z,5.8596
2024-03-24T08:14:11.936Z,11.0180
2024-03-24T08:15:14.953Z,9.5381
2024-03-24T08:16:17.965Z,7.9849
2024-03-24T08:17:21.267Z,9.2888
2024-03-24T08:18:24.301Z,9.6270
2024-03-24T08:19:27.341Z,5.0535
2024-03-24T08:20:30.431Z,7.2915
2024-03-24T08:21:33.522Z,7.2251
2024-03-24T08:22:36.804Z,11.1758
2024-03-24T08:23:39.909Z,9.5106
2024-03-24T08:24:42.928Z,5.8565
2024-03-24T08:25:45.896Z,5.9762
2024-03-24T08:26:48.968Z,9.1301
2024-03-24T08:27:51.981Z,6.3752
2024-03-24T08:28:55.007Z,8.1589
2024-03-24T08:29:58.052Z,13.7284
2024-03-24T08:31:01.061Z,9.9338
2024-03-24T08:32:04.074Z,15.4052
2024-03-24T08:33:07.181Z,15.6261
2024-03-24T08:34:10.220Z,13.3604
2024-03-24T08:35:13.221Z,12.1788
2024-03-24T08:36:16.629Z,13.6277
2024-03-24T08:37:19.696Z,10.5985
2024-03-24T08:38:22.869Z,10.3660
2024-03-24T08:39:25.889Z,7.1822
2024-03-24T08:40:31.120Z,7.3399
2024-03-24T08:41:31.911Z,10.3030
2024-03-24T08:42:34.904Z,13.7323
2024-03-24T08:43:37.899Z,14.0202
2024-03-24T08:44:40.958Z,14.6986
2024-03-24T08:45:43.994Z,16.2602
2024-03-24T08:46:47.043Z,16.4291
2024-03-24T08:47:50.058Z,12.0513
2024-03-24T08:48:53.087Z,13.6210
2024-03-24T08:49:56.147Z,8.6721
2024-03-24T08:50:59.126Z,11.4829
2024-03-24T08:52:02.253Z,14.6590
2024-03-24T08:53:05.258Z,8.2009
2024-03-24T08:54:08.567Z,7.7360
2024-03-24T08:55:11.704Z,13.8716
2024-03-24T08:56:14.700Z,12.9652
2024-03-24T08:57:17.736Z,10.5140
2024-03-24T08:58:20.800Z,11.5421
2024-03-24T08:59:23.996Z,10.7019
2024-03-24T09:00:27.190Z,8.3905
2024-03-24T09:01:30.283Z,12.1317
2024-03-24T09:02:33.503Z,15.0017
2024-03-24T09:03:36.600Z,12.6926
2024-03-24T09:04:39.690Z,10.4919
2024-03-24T09:05:42.756Z,8.0908
2024-03-24T09:06:45.769Z,7.2395
2024-03-24T09:07:48.817Z,6.6023
2024-03-24T09:08:51.865Z,9.0172
2024-03-24T09:09:54.893Z,9.8800
2024-03-24T09:10:57.888Z,14.5951
2024-03-24T09:12:01.046Z,14.7347
2024-03-24T09:13:04.060Z,10.8004
2024-03-24T09:14:07.076Z,9.9393
2024-03-24T09:15:10.267Z,6.6053
2024-03-24T09:16:13.239Z,9.7997
2024-03-24T09:17:16.392Z,12.0130
2024-03-24T09:18:19.495Z,8.6557
2024-03-24T09:19:22.548Z,10.5571
2024-03-24T09:20:25.620Z,13.8842
2024-03-24T09:21:28.643Z,13.3810
2024-03-24T09:22:31.657Z,13.5031
2024-03-24T09:23:34.706Z,11.3708
2024-03-24T09:24:37.752Z,17.0618
2024-03-24T09:25:40.772Z,16.4172
2024-03-24T09:26:43.822Z,11.3185
2024-03-24T09:27:46.869Z,7.9817
2024-03-24T09:28:49.889Z,13.0888
2024-03-24T09:29:52.989Z,14.1744
2024-03-24T09:30:56.033Z,12.3472
2024-03-24T09:31:59.075Z,8.3247
2024-03-24T09:33:02.092Z,11.0314
2024-03-24T09:34:05.354Z,14.9344
2024-03-24T09:35:13.272Z,8.7879
2024-03-24T09:36:10.583Z,10.3468
2024-03-24T09:37:13.575Z,9.0071
2024-03-24T09:38:16.856Z,8.8448
2024-03-24T09:39:19.962Z,10.0136
2024-03-24T09:40:23.054Z,11.9375
2024-03-24T09:41:26.096Z,12.5068
2024-03-24T09:42:29.100Z,9.9377
2024-03-24T09:43:32.160Z,11.4811
2024-03-24T09:44:35.234Z,11.9390
2024-03-24T09:45:38.260Z,7.9276
2024-03-24T09:46:41.242Z,9.0770
2024-03-24T09:47:44.301Z,10.8568
2024-03-24T09:48:47.301Z,9.4199
2024-03-24T09:49:50.319Z,7.0098
2024-03-24T09:50:53.393Z,9.5949
2024-03-24T09:51:56.452Z,7.6335
2024-03-24T09:52:59.489Z,7.5207
2024-03-24T09:54:02.553Z,7.5746
2024-03-24T09:55:05.580Z,5.8598
2024-03-24T09:56:08.608Z,8.6142
2024-03-24T09:57:11.663Z,10.9157
2024-03-24T09:58:17.214Z,6.6036
2024-03-24T09:59:17.462Z,8.6456
2024-03-24T10:00:20.724Z,10.5997
2024-03-24T10:01:23.826Z,4.0183
2024-03-24T10:02:26.845Z,12.8490
2024-03-24T10:03:29.922Z,10.0533
2024-03-24T10:04:32.922Z,9.5864
2024-03-24T10:05:35.981Z,14.1222
2024-03-24T10:06:38.996Z,9.4824
2024-03-24T10:07:42.053Z,11.6054
2024-03-24T10:08:45.104Z,10.3254
2024-03-24T10:09:48.187Z,12.4108
2024-03-24T10:10:51.163Z,10.3942
2024-03-24T10:11:54.314Z,8.0270
2024-03-24T10:12:57.334Z,6.4898
2024-03-24T10:14:00.364Z,9.6499
2024-03-24T10:15:03.389Z,9.4222
2024-03-24T10:16:06.400Z,14.3005
2024-03-24T10:17:09.433Z,10.0561
2024-03-24T10:18:09.652Z,12.3244
2024-03-24T10:19:12.697Z,16.0827
2024-03-24T10:20:15.746Z,8.0382
2024-03-24T10:21:18.741Z,9.9344
2024-03-24T10:22:22.090Z,16.6674
2024-03-24T10:23:25.100Z,8.6605
2024-03-24T10:24:28.140Z,8.8998
2024-03-24T10:25:31.198Z,10.1102
2024-03-24T10:26:34.269Z,9.9817
2024-03-24T10:27:37.297Z,7.8700
2024-03-24T10:28:40.313Z,8.2728
2024-03-24T10:29:43.429Z,10.7277
2024-03-24T10:30:46.445Z,9.1337
2024-03-24T10:31:52.731Z,10.8429
2024-03-24T10:32:52.843Z,6.9195
2024-03-24T10:33:55.848Z,8.7323
2024-03-24T10:34:58.858Z,7.3543
2024-03-24T10:36:02.032Z,8.0789
2024-03-24T10:37:05.041Z,9.5403
2024-03-24T10:38:08.189Z,6.0802
2024-03-24T10:39:11.242Z,8.1470
2024-03-24T10:40:14.371Z,8.0434
2024-03-24T10:41:17.420Z,7.4547
2024-03-24T10:42:20.459Z,6.6040
2024-03-24T10:43:23.525Z,7.0633
2024-03-24T10:44:26.502Z,12.8081
2024-03-24T10:45:29.542Z,7.7560
2024-03-24T10:46:32.579Z,7.5230
2024-03-24T10:47:35.712Z,6.8785
2024-03-24T10:48:38.730Z,6.9518
2024-03-24T10:49:41.789Z,5.5668
2024-03-24T10:50:44.814Z,5.4593
2024-03-24T10:51:47.855Z,8.4399
2024-03-24T10:52:53.250Z,7.4062
2024-03-24T10:53:53.318Z,5.6282
2024-03-24T10:54:56.348Z,7.6978
2024-03-24T10:55:59.379Z,5.5732
2024-03-24T10:57:02.394Z,6.7750
2024-03-24T10:58:05.413Z,8.1024
2024-03-24T10:59:11.307Z,11.5089
2024-03-24T11:00:08.717Z,5.1212
2024-03-24T11:01:11.999Z,8.1957
2024-03-24T11:02:15.077Z,7.4476
2024-03-24T11:03:18.131Z,12.6844
2024-03-24T11:04:21.149Z,11.1480
2024-03-24T11:05:24.160Z,8.5595
2024-03-24T11:06:27.180Z,11.5493
2024-03-24T11:07:30.246Z,15.6811
2024-03-24T11:08:33.269Z,12.5772
2024-03-24T11:09:36.289Z,10.1061
2024-03-24T11:10:39.346Z,13.6707
2024-03-24T11:11:42.478Z,12.6653
2024-03-24T11:12:45.609Z,11.5797
2024-03-24T11:13:48.778Z,6.6661
2024-03-24T11:14:51.880Z,6.0119
2024-03-24T11:15:54.904Z,6.0866
2024-03-24T11:16:57.408Z,6.4887
2024-03-24T11:17:59.971Z,6.3168
2024-03-24T11:19:02.420Z,5.5549
2024-03-24T11:20:04.886Z,5.1022
2024-03-24T11:21:07.347Z,6.8973
2024-03-24T11:22:09.772Z,8.8115
2024-03-24T11:23:12.292Z,8.3492
2024-03-24T11:24:14.747Z,6.1944
2024-03-24T11:25:17.350Z,9.6808
2024-03-24T11:26:19.898Z,7.5040
2024-03-24T11:27:22.926Z,11.0912
2024-03-24T11:28:23.083Z,9.5694
2024-03-24T11:29:26.177Z,7.4626
2024-03-24T11:30:29.177Z,9.2453
2024-03-24T11:31:32.167Z,9.1917
2024-03-24T11:32:35.178Z,6.8965
2024-03-24T11:33:38.220Z,10.9164
2024-03-24T11:34:41.248Z,8.2122
2024-03-24T11:35:44.340Z,8.9038
2024-03-24T11:36:47.375Z,7.0549
2024-03-24T11:37:50.445Z,7.7525
2024-03-24T11:38:53.418Z,6.0883
2024-03-24T11:39:56.495Z,6.0928
2024-03-24T11:40:59.539Z,8.3777
2024-03-24T11:42:02.592Z,7.1151
2024-03-24T11:43:05.619Z,13.0447
2024-03-24T11:44:08.645Z,15.9076
2024-03-24T11:45:11.727Z,11.4874
2024-03-24T11:46:14.717Z,13.7297
2024-03-24T11:47:17.778Z,9.8750
2024-03-24T11:48:20.829Z,9.8759
2024-03-24T11:49:23.849Z,9.5925
2024-03-24T11:50:27.239Z,12.2484
2024-03-24T11:51:30.262Z,19.3775
2024-03-24T11:52:33.366Z,10.7879
2024-03-24T11:53:36.395Z,10.8474
2024-03-24T11:54:39.420Z,12.5243
2024-03-24T11:55:42.419Z,12.1208
2024-03-24T11:56:45.465Z,12.0103
2024-03-24T11:57:48.529Z,13.8903
2024-03-24T11:58:51.540Z,14.3509
2024-03-24T11:59:54.576Z,11.7254
2024-03-24T12:00:57.628Z,8.2694
2024-03-24T12:02:00.662Z,9.1835
2024-03-24T12:03:03.747Z,10.6306
2024-03-24T12:04:06.736Z,11.8203
2024-03-24T12:05:09.748Z,8.1618
2024-03-24T12:06:12.798Z,7.5774
2024-03-24T12:07:15.898Z,8.3320
2024-03-24T12:08:18.908Z,11.3060
2024-03-24T12:09:21.921Z,9.6493
2024-03-24T12:10:24.987Z,12.9843
2024-03-24T12:11:28.027Z,11.9428
2024-03-24T12:12:31.067Z,9.0708
2024-03-24T12:13:34.116Z,10.9698
2024-03-24T12:14:37.146Z,14.3543
2024-03-24T12:15:40.171Z,12.6340
2024-03-24T12:16:43.247Z,9.9858
2024-03-24T12:17:46.287Z,10.6869
2024-03-24T12:18:49.306Z,7.9278
2024-03-24T12:19:52.372Z,12.4587
2024-03-24T12:20:55.504Z,11.0638
2024-03-24T12:21:58.570Z,14.9885
2024-03-24T12:23:01.606Z,10.6771
2024-03-24T12:24:04.826Z,10.5579
2024-03-24T12:25:07.824Z,17.8884
2024-03-24T12:26:10.834Z,12.1815
2024-03-24T12:27:13.940Z,13.0387
2024-03-24T12:28:16.985Z,10.3267
2024-03-24T12:29:20.020Z,10.6799
2024-03-24T12:30:23.074Z,14.5909
2024-03-24T12:31:26.426Z,12.1299
2024-03-24T12:32:29.461Z,9.7469
2024-03-24T12:33:32.499Z,7.6973
2024-03-24T12:34:35.540Z,5.2244
2024-03-24T12:35:38.588Z,11.8916
2024-03-24T12:36:41.618Z,9.8745
2024-03-24T12:37:44.698Z,11.6021
2024-03-24T12:38:47.719Z,10.5643
2024-03-24T12:39:50.736Z,10.1641
2024-03-24T12:40:55.245Z,8.0420
2024-03-24T12:41:54.968Z,12.3049
2024-03-24T12:42:58.160Z,8.4760
2024-03-24T12:44:01.303Z,6.3197
2024-03-24T12:45:04.353Z,11.5193
2024-03-24T12:46:07.367Z,5.4012
2024-03-24T12:47:10.432Z,6.0882
2024-03-24T12:48:13.498Z,12.2785
2024-03-24T12:49:16.496Z,7.1241
2024-03-24T12:51:22.647Z,9.9510
2024-03-24T12:52:25.646Z,8.3297
2024-03-24T12:53:28.676Z,4.6551
2024-03-24T12:54:31.701Z,5.3976
2024-03-24T12:55:34.757Z,5.1099
2024-03-24T12:56:37.779Z,9.4789
2024-03-24T12:57:40.819Z,10.2245
2024-03-24T12:58:43.863Z,6.8917
2024-03-24T12:59:46.896Z,6.8921
2024-03-24T13:00:49.956Z,7.9810